Flight Track Log - Related Links

Times and Time Zones

All times are in EDT time to prevent confusion due to time zone crossing. See the AWE1822 flight status page for this flight to view local times or setup timezone preferences in your user account.

Time Position Orientation Groundspeed Altitude Reporting Facility
EDT Latitude Longitude Course Direction KTS MPH feet Rate Location/Type
Mon 11:45:32 AM 35.1616 -80.9205 337° Northwest  Level FlightAware
Mon 11:45:59 AM 35.1908 -80.9356 96° East 171 197 1,800  Level Atlanta Center
Mon 11:50:54 AM 35.1642 -80.6394 56° Northeast 303 349 11,000 1,758 Climbing Atlanta Center
Mon 11:51:54 AM 35.2119 -80.5536 55° Northeast 303 349 12,200 1,250 Climbing Atlanta Center
Mon 11:52:54 AM 35.2675 -80.4547 57° Northeast 327 376 13,500 1,800 Climbing Atlanta Center
Mon 11:53:54 AM 35.3208 -80.3556 60° Northeast 343 395 15,800 1,652 Climbing Atlanta Center
Mon 11:56:21 AM 35.4386 -80.1069 71° East 360 414 19,200 1,391 Climbing Washington Center
Mon 11:57:21 AM 35.4722 -79.9864 73° East 367 422 20,600 1,322 Climbing Washington Center
Mon 11:58:19 AM 35.5039 -79.8606 72° East 377 434 21,800 1,210 Climbing Washington Center
Mon 11:59:20 AM 35.5378 -79.7322 73° East 383 441 23,000 1,131 Climbing Washington Center
Mon 12:00:21 PM 35.5714 -79.5986 71° East 397 457 24,100 1,140 Climbing Washington Center
Mon 12:01:21 PM 35.6119 -79.4500 66° East 414 476 25,300 1,050 Climbing Washington Center
Mon 12:02:21 PM 35.6597 -79.3194 63° Northeast 420 483 26,200 915 Climbing Washington Center
Mon 12:03:19 PM 35.7139 -79.1889 63° Northeast 425 489 27,100 857 Climbing Washington Center
Mon 12:04:20 PM 35.7681 -79.0556 64° Northeast 430 495 27,900 645 Climbing Washington Center
Mon 12:05:20 PM 35.8219 -78.9169 63° Northeast 441 507 28,400 595 Climbing Washington Center
Mon 12:06:21 PM 35.8800 -78.7733 58° Northeast 455 524 29,100 843 Climbing Washington Center
Mon 12:07:21 PM 35.9483 -78.6375 60° Northeast 460 529 30,100 864 Climbing Washington Center
Mon 12:08:19 PM 36.0056 -78.5139 58° Northeast 470 541 30,800 807 Climbing Washington Center
Mon 12:09:20 PM 36.0736 -78.3778 59° Northeast 465 535 31,700 836 Climbing Washington Center
Mon 12:10:21 PM 36.1392 -78.2411 59° Northeast 457 526 32,500 655 Climbing Washington Center
Mon 12:11:19 PM 36.2047 -78.1044 59° Northeast 457 526 33,000 254 Climbing Washington Center
Mon 12:12:19 PM 36.2747 -77.9572 60° Northeast 452 520 33,000  Level Washington Center
Mon 12:13:20 PM 36.3397 -77.8197 59° Northeast 459 528 33,000  Level Washington Center
Mon 12:14:20 PM 36.4050 -77.6825 61° Northeast 454 522 33,000  Level Washington Center
Mon 12:15:21 PM 36.4656 -77.5469 60° Northeast 454 522 33,000  Level Washington Center
Mon 12:16:21 PM 36.5303 -77.4092 60° Northeast 454 522 33,000  Level Washington Center
Mon 12:17:21 PM 36.5928 -77.2736 60° Northeast 454 522 33,000  Level Washington Center
Mon 12:18:19 PM 36.6572 -77.1325 53° Northeast 454 522 33,000  Level Washington Center
Mon 12:19:20 PM 36.7319 -77.0069 39° Northeast 454 522 33,000  Level Washington Center
Mon 12:20:21 PM 36.8247 -76.9125 37° Northeast 453 521 33,000  Level Washington Center
Mon 12:21:19 PM 36.9281 -76.8156 35° Northeast 453 521 33,000  Level Washington Center
Mon 12:22:20 PM 37.0333 -76.7236 36° Northeast 453 521 33,000  Level Washington Center
Mon 12:23:20 PM 37.1383 -76.6289 37° Northeast 458 527 33,000  Level Washington Center
Mon 12:24:21 PM 37.2433 -76.5311 35° Northeast 458 527 33,000  Level Washington Center
Mon 12:25:19 PM 37.3506 -76.4358 37° Northeast 463 533 33,000  Level Washington Center
Mon 12:26:20 PM 37.4556 -76.3375 36° Northeast 463 533 33,000  Level Washington Center
Mon 12:27:21 PM 37.5603 -76.2414 34° Northeast 463 533 33,000  Level Washington Center
Mon 12:28:21 PM 37.6714 -76.1453 38° Northeast 463 533 33,000  Level Washington Center
Mon 12:29:20 PM 37.7822 -76.0358 36° Northeast 463 533 33,000  Level Washington Center
Mon 12:30:20 PM 37.8889 -75.9392 37° Northeast 463 533 33,000  Level Washington Center
Mon 12:31:19 PM 37.9936 -75.8394 38° Northeast 463 533 33,000  Level Washington Center
Mon 12:32:19 PM 38.0958 -75.7394 35° Northeast 463 533 33,000  Level Washington Center
Mon 12:33:20 PM 38.2044 -75.6419 35° Northeast 463 533 33,000  Level Washington Center
Mon 12:34:21 PM 38.3086 -75.5494 27° Northeast 463 533 33,000  Level Washington Center
Mon 12:35:19 PM 38.4128 -75.4831 16° North 458 527 33,000  Level Washington Center
Mon 12:36:19 PM 38.5336 -75.4378 29° Northeast 451 519 33,000  Level Washington Center
Mon 12:37:20 PM 38.6483 -75.3550 32° Northeast 451 519 33,000  Level Washington Center
Mon 12:38:20 PM 38.7564 -75.2669 34° Northeast 451 519 33,000  Level Washington Center
Mon 12:39:21 PM 38.8792 -75.1622 32° Northeast 472 543 33,000  Level Washington Center
Mon 12:40:21 PM 38.9892 -75.0736 33° Northeast 472 543 33,000  Level Washington Center
Mon 12:41:19 PM 39.0972 -74.9844 34° Northeast 472 543 33,000  Level Washington Center
Mon 12:42:20 PM 39.2072 -74.8872 33° Northeast 467 537 33,000  Level Washington Center
Mon 12:43:21 PM 39.3128 -74.7975 34° Northeast 459 528 33,000  Level Washington Center
Mon 12:44:19 PM 39.4228 -74.7022 33° Northeast 464 534 33,000  Level Washington Center
Mon 12:45:20 PM 39.5303 -74.6122 34° Northeast 464 534 33,000  Level Washington Center
Mon 12:46:08 PM 39.6156 -74.5383 34° Northeast 464 534 33,000  Level New Center
Mon 12:47:09 PM 39.7272 -74.4417 33° Northeast 464 534 33,000  Level New Center
Mon 12:48:10 PM 39.8342 -74.3500 33° Northeast 464 534 33,000 -50 Level New Center
Mon 12:49:08 PM 39.9389 -74.2606 34° Northeast 459 528 32,900 -51 Descending New Center
Mon 12:50:08 PM 40.0461 -74.1656 33° Northeast 459 528 32,900  Level New Center
Mon 12:51:08 PM 40.1528 -74.0758 34° Northeast 454 522 32,900 50 Level New Center
Mon 12:52:09 PM 40.2575 -73.9831 34° Northeast 454 522 33,000 -258 Climbing New Center
Mon 12:54:14 PM 40.4625 -73.8011 35° Northeast 453 521 32,100 -908 Descending Boston Center
Mon 12:55:14 PM 40.5656 -73.7075 34° Northeast 447 514 30,200 -2,000 Descending Boston Center
Mon 12:56:14 PM 40.6708 -73.6139 32° Northeast 447 514 28,100 -2,100 Descending Boston Center
Mon 12:57:14 PM 40.7697 -73.5308 36° Northeast 442 509 26,000 -2,050 Descending Boston Center
Mon 12:58:14 PM 40.8664 -73.4392 55° Northeast 432 497 24,000 -1,100 Descending Boston Center
Mon 12:59:14 PM 40.9319 -73.3136 55° Northeast 408 470 23,800 -400 Descending Boston Center
Mon 01:00:14 PM 40.9975 -73.1881 57° Northeast 408 470 23,200 -400 Descending Boston Center
Mon 01:01:14 PM 41.0608 -73.0594 57° Northeast 408 470 23,000 -100 Descending Boston Center
Mon 01:02:14 PM 41.1239 -72.9306 57° Northeast 414 476 23,000  Level Boston Center
Mon 01:03:14 PM 41.1869 -72.8014 57° Northeast 414 476 23,000  Level Boston Center
Mon 01:04:14 PM 41.2497 -72.6719 55° Northeast 414 476 23,000  Level Boston Center
Mon 01:05:14 PM 41.3228 -72.5314 57° Northeast 420 483 23,000 -150 Level Boston Center
Mon 01:06:14 PM 41.3856 -72.4014 56° Northeast 420 483 22,700 -500 Descending Boston Center
Mon 01:07:14 PM 41.4478 -72.2767 60° Northeast 414 476 22,000 -750 Descending Boston Center
Mon 01:08:14 PM 41.5039 -72.1492 65° Northeast 404 465 21,200 -800 Descending Boston Center
Mon 01:09:14 PM 41.5514 -72.0158 68° East 399 459 20,400 -700 Descending Boston Center
Mon 01:10:14 PM 41.5944 -71.8739 69° East 399 459 19,800 -1,550 Descending Boston Center
Mon 01:11:14 PM 41.6333 -71.7403 69° East 399 459 17,300 -3,550 Descending Boston Center
Mon 01:12:14 PM 41.6700 -71.6119 68° East 398 458 12,700 -3,150 Descending Boston Center
Mon 01:13:14 PM 41.7147 -71.4639 60° Northeast 396 456 11,000 -850 Descending Boston Center
Mon 01:14:14 PM 41.7575 -71.3658 48° Northeast 320 368 11,000  Level Boston Center
Mon 01:15:14 PM 41.8111 -71.2869 21° North 297 342 11,000 -100 Level Boston Center
Mon 01:16:14 PM 41.8856 -71.2494 25° Northeast 278 320 10,800 -950 Descending Boston Center
Mon 01:17:14 PM 41.9561 -71.2061 21° North 278 320 9,100 -1,500 Descending Boston Center
Mon 01:18:14 PM 42.0244 -71.1714 22° Northeast 265 305 7,800 -1,000 Descending Boston Center
Mon 01:19:14 PM 42.0825 -71.1394 20° North 239 275 7,100 -1,050 Descending Boston Center
Mon 01:20:14 PM 42.1300 -71.1161 20° North 191 220 5,700 -1,400 Descending Boston Center

Login

Don't have an account? Register now (free) for customized features, flight alerts, and more!